createdAt,value
2023-04-14T00:00:57.565Z,23.67
2023-04-14T00:01:57.714Z,23.66
2023-04-14T00:02:57.751Z,23.66
2023-04-14T00:03:57.881Z,23.65
2023-04-14T00:04:57.798Z,23.66
2023-04-14T00:05:57.791Z,23.67
2023-04-14T00:06:57.818Z,23.66
2023-04-14T00:07:57.845Z,23.67
2023-04-14T00:08:58.193Z,23.66
2023-04-14T00:09:57.962Z,23.66
2023-04-14T00:10:57.997Z,23.66
2023-04-14T00:11:58.041Z,23.66
2023-04-14T00:12:58.115Z,23.65
2023-04-14T00:13:58.130Z,23.65
2023-04-14T00:14:58.194Z,23.65
2023-04-14T00:15:58.213Z,23.65
2023-04-14T00:16:58.319Z,23.65
2023-04-14T00:17:58.385Z,23.65
2023-04-14T00:18:58.571Z,23.66
2023-04-14T00:19:58.396Z,23.66
2023-04-14T00:20:58.469Z,23.65
2023-04-14T00:21:58.463Z,23.65
2023-04-14T00:22:58.543Z,23.65
2023-04-14T00:23:58.556Z,23.66
2023-04-14T00:24:58.588Z,23.65
2023-04-14T00:25:58.736Z,23.65
2023-04-14T00:26:58.681Z,23.66
2023-04-14T00:27:58.721Z,23.65
2023-04-14T00:28:58.970Z,23.65
2023-04-14T00:29:58.829Z,23.65
2023-04-14T00:30:58.888Z,23.65
2023-04-14T00:31:58.913Z,23.65
2023-04-14T00:32:58.965Z,23.65
2023-04-14T00:33:59.480Z,23.65
2023-04-14T00:34:59.198Z,23.65
2023-04-14T00:35:59.078Z,23.65
2023-04-14T00:36:59.072Z,23.65
2023-04-14T00:37:59.132Z,23.64
2023-04-14T00:38:59.356Z,23.64
2023-04-14T00:39:59.202Z,23.64
2023-04-14T00:40:59.217Z,23.65
2023-04-14T00:41:59.286Z,23.64
2023-04-14T00:42:59.288Z,23.64
2023-04-14T00:43:59.344Z,23.64
2023-04-14T00:44:59.396Z,23.64
2023-04-14T00:45:59.518Z,23.64
2023-04-14T00:46:59.495Z,23.65
2023-04-14T00:47:59.616Z,23.64
2023-04-14T00:48:59.795Z,23.64
2023-04-14T00:49:59.606Z,23.64
2023-04-14T00:50:59.662Z,23.64
2023-04-14T00:51:59.707Z,23.64
2023-04-14T00:52:59.750Z,23.64
2023-04-14T00:53:59.784Z,23.64
2023-04-14T00:54:59.848Z,23.64
2023-04-14T00:55:59.872Z,23.64
2023-04-14T00:56:59.917Z,23.64
2023-04-14T00:57:59.959Z,23.64
2023-04-14T00:59:00.179Z,23.64
2023-04-14T01:00:00.056Z,23.64
2023-04-14T01:01:00.077Z,23.63
2023-04-14T01:02:00.238Z,23.63
2023-04-14T01:03:00.334Z,23.64
2023-04-14T01:04:00.313Z,23.64
2023-04-14T01:05:00.442Z,23.64
2023-04-14T01:06:00.324Z,23.64
2023-04-14T01:07:00.371Z,23.64
2023-04-14T01:08:00.376Z,23.63
2023-04-14T01:09:00.706Z,23.63
2023-04-14T01:10:00.445Z,23.64
2023-04-14T01:11:00.486Z,23.64
2023-04-14T01:12:00.581Z,23.63
2023-04-14T01:13:00.613Z,23.64
2023-04-14T01:14:00.651Z,23.63
2023-04-14T01:15:00.684Z,23.63
2023-04-14T01:16:00.804Z,23.63
2023-04-14T01:17:00.755Z,23.63
2023-04-14T01:18:00.884Z,23.64
2023-04-14T01:19:01.246Z,23.63
2023-04-14T01:20:00.933Z,23.64
2023-04-14T01:21:00.950Z,23.63
2023-04-14T01:22:01.009Z,23.63
2023-04-14T01:23:01.049Z,23.63
2023-04-14T01:24:01.139Z,23.63
2023-04-14T01:25:01.128Z,23.63
2023-04-14T01:26:01.184Z,23.63
2023-04-14T01:27:01.222Z,23.63
2023-04-14T01:28:01.257Z,23.62
2023-04-14T01:29:01.538Z,23.62
2023-04-14T01:30:01.381Z,23.61
2023-04-14T01:31:01.374Z,23.62
2023-04-14T01:32:01.528Z,23.61
2023-04-14T01:33:01.546Z,23.61
2023-04-14T01:34:01.479Z,23.61
2023-04-14T01:35:01.536Z,23.61
2023-04-14T01:36:01.596Z,23.61
2023-04-14T01:37:01.726Z,23.61
2023-04-14T01:38:01.708Z,23.61
2023-04-14T01:39:01.971Z,23.61
2023-04-14T01:40:01.795Z,23.60
2023-04-14T01:41:01.844Z,23.60
2023-04-14T01:42:01.869Z,23.61
2023-04-14T01:43:01.946Z,23.61
2023-04-14T01:44:01.995Z,23.60
2023-04-14T01:45:02.038Z,23.61
2023-04-14T01:46:02.141Z,23.60
2023-04-14T01:47:02.151Z,23.60
2023-04-14T01:48:02.201Z,23.60
2023-04-14T01:49:02.498Z,23.60
2023-04-14T01:50:02.265Z,23.60
2023-04-14T01:51:02.358Z,23.61
2023-04-14T01:52:02.324Z,23.60
2023-04-14T01:53:02.425Z,23.61
2023-04-14T01:54:02.436Z,23.61
2023-04-14T01:55:02.525Z,23.60
2023-04-14T01:56:02.563Z,23.60
2023-04-14T01:57:02.608Z,23.61
2023-04-14T01:58:02.624Z,23.60
2023-04-14T01:59:02.746Z,23.60
2023-04-14T02:00:02.698Z,23.60
2023-04-14T02:01:02.796Z,23.60
2023-04-14T02:02:02.877Z,23.60
2023-04-14T02:03:02.929Z,23.60
2023-04-14T02:04:03.086Z,23.61
2023-04-14T02:05:02.946Z,23.60
2023-04-14T02:06:03.028Z,23.60
2023-04-14T02:07:03.049Z,23.60
2023-04-14T02:08:03.103Z,23.60
2023-04-14T02:09:03.163Z,23.60
2023-04-14T02:10:03.237Z,23.60
2023-04-14T02:11:03.265Z,23.60
2023-04-14T02:12:03.288Z,23.60
2023-04-14T02:13:03.370Z,23.60
2023-04-14T02:14:03.377Z,23.61
2023-04-14T02:15:03.484Z,23.60
2023-04-14T02:16:03.522Z,23.60
2023-04-14T02:17:03.587Z,23.59
2023-04-14T02:18:03.653Z,23.59
2023-04-14T02:19:03.664Z,23.60
2023-04-14T02:20:03.733Z,23.59
2023-04-14T02:21:03.800Z,23.60
2023-04-14T02:22:03.832Z,23.60
2023-04-14T02:23:03.873Z,23.60
2023-04-14T02:24:03.941Z,23.60
2023-04-14T02:25:03.995Z,23.60
2023-04-14T02:26:04.006Z,23.60
2023-04-14T02:27:04.083Z,23.59
2023-04-14T02:28:04.129Z,23.59
2023-04-14T02:29:04.180Z,23.58
2023-04-14T02:30:04.249Z,23.59
2023-04-14T02:31:04.299Z,23.58
2023-04-14T02:32:04.321Z,23.58
2023-04-14T02:33:04.447Z,23.58
2023-04-14T02:34:04.417Z,23.58
2023-04-14T02:35:04.476Z,23.58
2023-04-14T02:36:04.567Z,23.58
2023-04-14T02:37:04.554Z,23.58
2023-04-14T02:38:04.625Z,23.57
2023-04-14T02:39:04.668Z,23.57
2023-04-14T02:40:04.822Z,23.57
2023-04-14T02:41:04.785Z,23.57
2023-04-14T02:42:04.796Z,23.57
2023-04-14T02:43:04.898Z,23.57
2023-04-14T02:44:04.942Z,23.58
2023-04-14T02:45:04.977Z,23.58
2023-04-14T02:46:05.052Z,23.57
2023-04-14T02:47:05.078Z,23.58
2023-04-14T02:48:05.189Z,23.58
2023-04-14T02:49:05.201Z,23.58
2023-04-14T02:50:05.220Z,23.58
2023-04-14T02:51:05.283Z,23.58
2023-04-14T02:52:05.310Z,23.58
2023-04-14T02:53:05.384Z,23.58
2023-04-14T02:54:05.403Z,23.57
2023-04-14T02:55:05.493Z,23.57
2023-04-14T02:56:05.535Z,23.57
2023-04-14T02:57:05.595Z,23.58
2023-04-14T02:58:05.657Z,23.57
2023-04-14T02:59:05.669Z,23.57
2023-04-14T03:00:05.756Z,23.57
2023-04-14T03:01:05.804Z,23.56
2023-04-14T03:02:05.970Z,23.56
2023-04-14T03:03:06.019Z,23.57
2023-04-14T03:04:06.007Z,23.56
2023-04-14T03:05:05.992Z,23.56
2023-04-14T03:06:06.021Z,23.56
2023-04-14T03:07:06.067Z,23.56
2023-04-14T03:08:06.128Z,23.58
2023-04-14T03:09:06.161Z,23.57
2023-04-14T03:10:06.214Z,23.59
2023-04-14T03:11:06.226Z,23.59
2023-04-14T03:12:06.285Z,23.60
2023-04-14T03:13:06.330Z,23.62
2023-04-14T03:14:06.382Z,23.62
2023-04-14T03:15:06.425Z,23.64
2023-04-14T03:16:06.485Z,23.65
2023-04-14T03:17:06.498Z,23.67
2023-04-14T03:18:06.603Z,23.68
2023-04-14T03:19:06.558Z,23.71
2023-04-14T03:20:06.601Z,23.73
2023-04-14T03:21:06.604Z,23.75
2023-04-14T03:22:06.719Z,23.79
2023-04-14T03:23:06.673Z,23.81
2023-04-14T03:24:06.721Z,23.84
2023-04-14T03:25:06.726Z,23.87
2023-04-14T03:26:06.753Z,23.89
2023-04-14T03:27:06.775Z,23.92
2023-04-14T03:28:06.825Z,23.95
2023-04-14T03:29:06.857Z,23.98
2023-04-14T03:30:06.881Z,24.01
2023-04-14T03:31:06.891Z,24.04
2023-04-14T03:32:06.929Z,24.07
2023-04-14T03:33:06.906Z,24.09
2023-04-14T03:34:06.915Z,24.11
2023-04-14T03:35:06.868Z,24.14
2023-04-14T03:36:06.888Z,24.17
2023-04-14T03:37:06.884Z,24.19
2023-04-14T03:38:06.895Z,24.21
2023-04-14T03:39:06.865Z,24.23
2023-04-14T03:40:06.831Z,24.24
2023-04-14T03:41:06.858Z,24.25
2023-04-14T03:42:06.860Z,24.27
2023-04-14T03:43:06.906Z,24.29
2023-04-14T03:44:06.924Z,24.31
2023-04-14T03:45:06.922Z,24.32
2023-04-14T03:46:07.750Z,24.33
2023-04-14T03:47:06.973Z,24.34
2023-04-14T03:48:07.016Z,24.35
2023-04-14T03:49:07.069Z,24.37
2023-04-14T03:50:07.108Z,24.38
2023-04-14T03:51:07.130Z,24.40
2023-04-14T03:52:07.227Z,24.40
2023-04-14T03:53:07.299Z,24.42
2023-04-14T03:54:07.458Z,24.41
2023-04-14T03:55:07.388Z,24.42
2023-04-14T03:56:07.462Z,24.42
2023-04-14T03:57:07.549Z,24.43
2023-04-14T03:58:07.571Z,24.44
2023-04-14T03:59:09.620Z,24.44
2023-04-14T04:00:07.705Z,24.44
2023-04-14T04:01:07.791Z,24.44
2023-04-14T04:02:07.948Z,24.46
2023-04-14T04:03:07.979Z,24.47
2023-04-14T04:04:08.075Z,24.48
2023-04-14T04:05:08.045Z,24.47
2023-04-14T04:06:08.079Z,24.49
2023-04-14T04:07:08.135Z,24.51
2023-04-14T04:08:08.256Z,24.50
2023-04-14T04:09:08.269Z,24.51
2023-04-14T04:10:08.321Z,24.53
2023-04-14T04:11:08.393Z,24.52
2023-04-14T04:12:08.443Z,24.54
2023-04-14T04:13:08.531Z,24.53
2023-04-14T04:14:08.582Z,24.54
2023-04-14T04:15:08.656Z,24.54
2023-04-14T04:16:08.715Z,24.54
2023-04-14T04:17:08.755Z,24.56
2023-04-14T04:18:08.827Z,24.58
2023-04-14T04:19:08.889Z,24.58
2023-04-14T04:20:08.907Z,24.59
2023-04-14T04:21:08.998Z,24.60
2023-04-14T04:22:09.024Z,24.60
2023-04-14T04:23:09.102Z,24.60
2023-04-14T04:24:09.157Z,24.61
2023-04-14T04:25:09.166Z,24.61
2023-04-14T04:26:09.235Z,24.62
2023-04-14T04:27:20.384Z,24.62
2023-04-14T04:28:10.281Z,24.61
2023-04-14T04:29:09.306Z,24.62
2023-04-14T04:30:09.270Z,24.63
2023-04-14T04:31:09.281Z,24.63
2023-04-14T04:32:09.287Z,24.62
2023-04-14T04:33:09.313Z,24.62
2023-04-14T04:34:09.260Z,24.63
2023-04-14T04:35:09.268Z,24.63
2023-04-14T04:36:09.261Z,24.62
2023-04-14T04:37:09.255Z,24.62
2023-04-14T04:38:09.279Z,24.63
2023-04-14T04:39:09.344Z,24.62
2023-04-14T04:40:09.386Z,24.62
2023-04-14T04:41:09.446Z,24.62
2023-04-14T04:42:09.523Z,24.63
2023-04-14T04:43:09.565Z,24.63
2023-04-14T04:44:09.644Z,24.61
2023-04-14T04:45:09.684Z,24.61
2023-04-14T04:46:09.776Z,24.62
2023-04-14T04:47:09.816Z,24.61
2023-04-14T04:48:09.908Z,24.61
2023-04-14T04:49:09.921Z,24.62
2023-04-14T04:50:09.965Z,24.62
2023-04-14T04:51:10.042Z,24.62
2023-04-14T04:52:10.070Z,24.62
2023-04-14T04:53:10.124Z,24.62
2023-04-14T04:54:10.199Z,24.62
2023-04-14T04:55:10.250Z,24.62
2023-04-14T04:56:10.309Z,24.62
2023-04-14T04:57:11.192Z,24.61
2023-04-14T04:58:10.418Z,24.62
2023-04-14T04:59:10.477Z,24.61
2023-04-14T05:00:10.504Z,24.62
2023-04-14T05:01:17.602Z,24.61
2023-04-14T05:02:10.623Z,24.61
2023-04-14T05:03:10.544Z,24.61
2023-04-14T05:04:10.549Z,24.62
2023-04-14T05:05:10.529Z,24.61
2023-04-14T05:06:10.540Z,24.61
2023-04-14T05:07:10.516Z,24.60
2023-04-14T05:08:11.851Z,24.59
2023-04-14T05:09:10.706Z,24.58
2023-04-14T05:10:10.750Z,24.57
2023-04-14T05:11:10.822Z,24.57
2023-04-14T05:12:10.888Z,24.56
2023-04-14T05:13:10.936Z,24.55
2023-04-14T05:14:11.016Z,24.55
2023-04-14T05:15:11.085Z,24.55
2023-04-14T05:16:11.176Z,24.56
2023-04-14T05:17:11.190Z,24.54
2023-04-14T05:18:11.231Z,24.54
2023-04-14T05:19:11.309Z,24.54
2023-04-14T05:20:11.355Z,24.53
2023-04-14T05:21:11.424Z,24.52
2023-04-14T05:22:11.504Z,24.44
2023-04-14T05:23:11.518Z,23.54
2023-04-14T05:24:11.559Z,22.41
2023-04-14T05:25:11.620Z,21.39
2023-04-14T05:26:32.256Z,20.55
2023-04-14T05:27:14.323Z,19.91
2023-04-14T05:28:11.571Z,19.38
2023-04-14T05:29:11.611Z,18.94
2023-04-14T05:30:11.597Z,18.53
2023-04-14T05:31:11.693Z,18.15
2023-04-14T05:32:11.584Z,18.02
2023-04-14T05:33:11.579Z,18.06
2023-04-14T05:34:11.663Z,18.10
2023-04-14T05:35:11.554Z,18.25
2023-04-14T05:36:11.549Z,18.54
2023-04-14T05:37:11.545Z,18.87
2023-04-14T05:38:11.532Z,19.18
2023-04-14T05:39:11.766Z,19.51
2023-04-14T05:40:11.511Z,19.80
2023-04-14T05:41:11.746Z,20.06
2023-04-14T05:42:11.496Z,20.28
2023-04-14T05:43:11.537Z,20.50
2023-04-14T05:44:11.683Z,20.69
2023-04-14T05:45:19.079Z,20.87
2023-04-14T05:46:11.501Z,21.03
2023-04-14T05:47:11.464Z,21.22
2023-04-14T05:48:11.477Z,21.42
2023-04-14T05:49:11.487Z,21.60
2023-04-14T05:50:11.415Z,21.78
2023-04-14T05:51:11.476Z,21.95
2023-04-14T05:52:11.439Z,22.12
2023-04-14T05:53:11.409Z,22.27
2023-04-14T05:54:11.420Z,22.41
2023-04-14T05:55:11.411Z,22.55
2023-04-14T05:56:11.434Z,22.69
2023-04-14T05:57:11.399Z,22.81
2023-04-14T05:58:11.398Z,22.92
2023-04-14T05:59:11.376Z,23.03
2023-04-14T06:00:11.556Z,23.13
2023-04-14T06:01:11.338Z,23.22
2023-04-14T06:02:11.419Z,23.31
2023-04-14T06:03:11.641Z,23.38
2023-04-14T06:04:11.810Z,23.47
2023-04-14T06:05:11.411Z,23.54
2023-04-14T06:06:11.353Z,23.61
2023-04-14T06:07:11.363Z,23.67
2023-04-14T06:08:11.332Z,23.73
2023-04-14T06:09:11.746Z,23.79
2023-04-14T06:10:11.313Z,23.85
2023-04-14T06:11:11.321Z,23.90
2023-04-14T06:12:11.287Z,23.96
2023-04-14T06:13:11.318Z,23.99
2023-04-14T06:14:11.799Z,24.03
2023-04-14T06:15:11.360Z,24.06
2023-04-14T06:16:11.518Z,24.11
2023-04-14T06:17:11.418Z,24.15
2023-04-14T06:18:11.482Z,24.19
2023-04-14T06:19:11.546Z,24.22
2023-04-14T06:20:11.580Z,24.24
2023-04-14T06:21:11.661Z,24.28
2023-04-14T06:22:11.886Z,24.31
2023-04-14T06:23:11.808Z,24.33
2023-04-14T06:24:12.062Z,24.37
2023-04-14T06:25:11.892Z,24.40
2023-04-14T06:26:12.939Z,24.42
2023-04-14T06:27:11.944Z,24.45
2023-04-14T06:28:12.019Z,24.47
2023-04-14T06:29:12.081Z,24.49
2023-04-14T06:30:12.745Z,24.51
2023-04-14T06:31:12.132Z,24.53
2023-04-14T06:32:12.245Z,24.55
2023-04-14T06:33:12.233Z,24.56
2023-04-14T06:34:12.287Z,24.58
2023-04-14T06:35:25.759Z,24.61
2023-04-14T06:36:13.309Z,24.60
2023-04-14T06:37:12.289Z,24.61
2023-04-14T06:38:12.294Z,24.59
2023-04-14T06:39:12.758Z,24.52
2023-04-14T06:40:12.258Z,24.49
2023-04-14T06:41:12.256Z,24.52
2023-04-14T06:42:12.267Z,24.54
2023-04-14T06:43:12.269Z,24.56
2023-04-14T06:44:12.251Z,24.58
2023-04-14T06:45:12.235Z,24.60
2023-04-14T06:46:12.353Z,24.62
2023-04-14T06:47:12.348Z,24.64
2023-04-14T06:48:12.494Z,24.66
2023-04-14T06:49:12.465Z,24.67
2023-04-14T06:50:12.505Z,24.68
2023-04-14T06:51:12.539Z,24.70
2023-04-14T06:52:12.599Z,24.71
2023-04-14T06:53:12.634Z,24.72
2023-04-14T06:54:12.745Z,24.73
2023-04-14T06:55:12.743Z,24.74
2023-04-14T06:56:12.773Z,24.74
2023-04-14T06:57:12.794Z,24.75
2023-04-14T06:58:12.857Z,24.75
2023-04-14T06:59:12.899Z,24.77
2023-04-14T07:00:12.961Z,24.78
2023-04-14T07:01:12.979Z,24.79
2023-04-14T07:02:13.082Z,24.80
2023-04-14T07:03:13.139Z,24.79
2023-04-14T07:04:13.245Z,24.82
2023-04-14T07:05:13.341Z,24.83
2023-04-14T07:06:13.157Z,24.82
2023-04-14T07:07:13.162Z,24.82
2023-04-14T07:08:13.268Z,24.84
2023-04-14T07:09:13.725Z,24.84
2023-04-14T07:10:13.279Z,24.85
2023-04-14T07:11:13.324Z,24.86
2023-04-14T07:12:13.305Z,24.86
2023-04-14T07:13:13.347Z,24.87
2023-04-14T07:14:13.394Z,24.87
2023-04-14T07:15:13.400Z,24.89
2023-04-14T07:16:13.463Z,24.89
2023-04-14T07:17:13.431Z,24.91
2023-04-14T07:18:13.569Z,24.91
2023-04-14T07:19:13.494Z,24.92
2023-04-14T07:20:13.538Z,24.93
2023-04-14T07:21:13.561Z,24.93
2023-04-14T07:22:13.578Z,24.95
2023-04-14T07:23:13.639Z,24.94
2023-04-14T07:24:15.355Z,24.96
2023-04-14T07:25:13.699Z,24.97
2023-04-14T07:26:13.702Z,24.96
2023-04-14T07:27:13.710Z,24.97
2023-04-14T07:28:13.727Z,24.97
2023-04-14T07:29:13.799Z,24.98
2023-04-14T07:30:14.235Z,24.92
2023-04-14T07:31:13.897Z,24.78
2023-04-14T07:32:13.916Z,24.58
2023-04-14T07:33:13.942Z,24.37
2023-04-14T07:34:14.250Z,24.20
2023-04-14T07:35:13.977Z,24.04
2023-04-14T07:36:14.018Z,23.86
2023-04-14T07:37:14.069Z,23.70
2023-04-14T07:38:14.138Z,23.59
2023-04-14T07:39:14.168Z,23.51
2023-04-14T07:40:14.236Z,23.41
2023-04-14T07:41:14.176Z,23.30
2023-04-14T07:42:14.214Z,23.26
2023-04-14T07:43:14.188Z,23.37
2023-04-14T07:44:14.292Z,23.48
2023-04-14T07:45:14.319Z,23.62
2023-04-14T07:46:14.421Z,23.74
2023-04-14T07:47:14.450Z,23.86
2023-04-14T07:48:14.418Z,23.97
2023-04-14T07:49:14.430Z,24.06
2023-04-14T07:50:14.455Z,24.14
2023-04-14T07:51:14.438Z,24.22
2023-04-14T07:52:14.452Z,24.29
2023-04-14T07:53:14.464Z,24.35
2023-04-14T07:54:14.543Z,24.40
2023-04-14T07:55:14.597Z,24.37
2023-04-14T07:56:14.594Z,24.25
2023-04-14T07:57:14.623Z,24.11
2023-04-14T07:58:15.808Z,23.98
2023-04-14T07:59:14.625Z,23.86
2023-04-14T08:00:14.685Z,23.75
2023-04-14T08:01:14.721Z,23.66
2023-04-14T08:02:14.873Z,23.58
2023-04-14T08:03:14.984Z,23.52
2023-04-14T08:04:15.116Z,23.46
2023-04-14T08:05:15.004Z,23.36
2023-04-14T08:06:15.904Z,23.27
2023-04-14T08:07:14.901Z,23.18
2023-04-14T08:08:14.951Z,23.10
2023-04-14T08:09:14.894Z,23.04
2023-04-14T08:10:14.881Z,22.98
2023-04-14T08:11:14.883Z,22.94
2023-04-14T08:12:14.887Z,22.90
2023-04-14T08:13:14.863Z,22.88
2023-04-14T08:14:14.897Z,22.84
2023-04-14T08:15:14.874Z,22.81
2023-04-14T08:16:14.909Z,22.78
2023-04-14T08:17:14.855Z,22.75
2023-04-14T08:18:14.830Z,22.73
2023-04-14T08:19:14.851Z,22.70
2023-04-14T08:20:14.824Z,22.65
2023-04-14T08:21:14.887Z,22.63
2023-04-14T08:22:14.926Z,22.62
2023-04-14T08:23:14.929Z,22.61
2023-04-14T08:24:14.967Z,22.59
2023-04-14T08:25:15.074Z,22.58
2023-04-14T08:26:15.092Z,22.55
2023-04-14T08:27:15.087Z,22.53
2023-04-14T08:28:15.116Z,22.50
2023-04-14T08:30:34.252Z,22.44
2023-04-14T08:31:34.091Z,22.50
2023-04-14T08:32:34.072Z,22.60
2023-04-14T08:33:34.072Z,22.66
2023-04-14T08:34:34.076Z,22.77
2023-04-14T08:35:37.436Z,22.88
2023-04-14T08:36:35.028Z,22.99
2023-04-14T08:37:34.000Z,23.09
2023-04-14T08:38:33.977Z,23.19
2023-04-14T08:39:34.005Z,23.28
2023-04-14T08:40:34.269Z,23.37
2023-04-14T08:41:34.002Z,23.44
2023-04-14T08:42:33.970Z,23.50
2023-04-14T08:43:33.983Z,23.56
2023-04-14T08:44:33.957Z,23.61
2023-04-14T08:45:33.982Z,23.67
2023-04-14T08:46:33.986Z,23.70
2023-04-14T08:47:34.115Z,23.72
2023-04-14T08:48:34.114Z,23.64
2023-04-14T08:49:34.113Z,23.61
2023-04-14T08:50:34.271Z,23.58
2023-04-14T08:51:34.215Z,23.58
2023-04-14T08:52:34.288Z,23.61
2023-04-14T08:53:34.321Z,23.66
2023-04-14T08:54:34.320Z,23.71
2023-04-14T08:55:34.787Z,23.76
2023-04-14T08:56:34.388Z,23.82
2023-04-14T08:57:35.406Z,23.86
2023-04-14T08:58:34.278Z,23.92
2023-04-14T08:59:34.351Z,23.95
2023-04-14T09:00:34.307Z,24.01
2023-04-14T09:01:36.027Z,24.04
2023-04-14T09:02:34.449Z,24.07
2023-04-14T09:03:34.431Z,24.09
2023-04-14T09:04:34.310Z,24.12
2023-04-14T09:05:34.799Z,24.16
2023-04-14T09:06:34.244Z,24.19
2023-04-14T09:07:34.260Z,24.21
2023-04-14T09:08:34.309Z,24.24
2023-04-14T09:09:34.306Z,24.26
2023-04-14T09:10:34.413Z,24.28
2023-04-14T09:11:34.312Z,24.31
2023-04-14T09:12:34.349Z,24.33
2023-04-14T09:13:34.319Z,24.35
2023-04-14T09:14:34.379Z,24.37
2023-04-14T09:15:34.382Z,24.39
2023-04-14T09:16:34.395Z,24.40
2023-04-14T09:17:34.508Z,24.43
2023-04-14T09:18:36.444Z,24.45
2023-04-14T09:19:35.347Z,24.47
2023-04-14T09:20:40.854Z,24.49
2023-04-14T09:21:51.769Z,24.51
2023-04-14T09:22:35.402Z,24.50
2023-04-14T09:23:34.402Z,24.53
2023-04-14T09:24:34.481Z,24.55
2023-04-14T09:25:34.410Z,24.56
2023-04-14T09:26:34.349Z,24.59
2023-04-14T09:27:34.365Z,24.60
2023-04-14T09:28:34.314Z,24.62
2023-04-14T09:29:34.333Z,24.63
2023-04-14T09:30:34.343Z,24.64
2023-04-14T09:31:34.477Z,24.66
2023-04-14T09:32:34.330Z,24.67
2023-04-14T09:33:34.382Z,24.68
2023-04-14T09:34:34.324Z,24.70
2023-04-14T09:35:34.305Z,24.71
2023-04-14T09:36:34.291Z,24.72
2023-04-14T09:37:34.283Z,24.73
2023-04-14T09:38:34.250Z,24.74
2023-04-14T09:39:34.304Z,24.75
2023-04-14T09:40:34.263Z,24.77
2023-04-14T09:41:34.236Z,24.78
2023-04-14T09:42:34.247Z,24.75
2023-04-14T09:43:34.706Z,24.71
2023-04-14T09:44:34.228Z,24.67
2023-04-14T09:45:34.199Z,24.66
2023-04-14T09:46:34.260Z,24.65
2023-04-14T09:47:34.740Z,24.62
2023-04-14T09:48:34.219Z,24.59
2023-04-14T09:49:34.215Z,24.54
2023-04-14T09:50:34.220Z,24.49
2023-04-14T09:51:35.200Z,24.42
2023-04-14T09:52:34.191Z,24.37
2023-04-14T09:53:34.209Z,24.32
2023-04-14T09:54:34.217Z,24.28
2023-04-14T09:55:34.211Z,24.22
2023-04-14T09:56:34.288Z,24.18
2023-04-14T09:57:34.146Z,24.16
2023-04-14T09:58:34.125Z,24.14
2023-04-14T09:59:34.146Z,24.12
2023-04-14T10:00:34.092Z,24.10
2023-04-14T10:01:34.736Z,24.09
2023-04-14T10:02:34.192Z,24.08
2023-04-14T10:03:34.267Z,24.08
2023-04-14T10:04:34.064Z,24.08
2023-04-14T10:05:34.996Z,24.08
2023-04-14T10:06:34.090Z,24.07
2023-04-14T10:07:34.102Z,24.08
2023-04-14T10:08:34.089Z,24.08
2023-04-14T10:09:34.039Z,24.09
2023-04-14T10:10:34.054Z,24.10
2023-04-14T10:11:33.996Z,24.10
2023-04-14T10:12:34.042Z,24.12
2023-04-14T10:13:34.026Z,24.14
2023-04-14T10:14:34.011Z,24.16
2023-04-14T10:15:34.179Z,24.17
2023-04-14T10:16:34.438Z,24.19
2023-04-14T10:17:34.420Z,24.20
2023-04-14T10:18:34.093Z,24.21
2023-04-14T10:19:34.163Z,24.23
2023-04-14T10:20:34.178Z,24.28
2023-04-14T10:21:34.247Z,24.32
2023-04-14T10:22:34.334Z,24.37
2023-04-14T10:23:34.360Z,24.41
2023-04-14T10:24:34.391Z,24.45
2023-04-14T10:25:34.450Z,24.50
2023-04-14T10:26:34.507Z,24.53
2023-04-14T10:27:34.579Z,24.58
2023-04-14T10:28:34.609Z,24.61
2023-04-14T10:29:34.664Z,24.64
2023-04-14T10:30:34.678Z,24.66
2023-04-14T10:31:34.856Z,24.69
2023-04-14T10:32:34.775Z,24.70
2023-04-14T10:33:34.829Z,24.72
2023-04-14T10:34:34.952Z,24.72
2023-04-14T10:35:34.879Z,24.72
2023-04-14T10:36:35.291Z,24.70
2023-04-14T10:37:35.009Z,24.64
2023-04-14T10:38:35.007Z,24.60
2023-04-14T10:39:35.054Z,24.56
2023-04-14T10:40:35.146Z,24.53
2023-04-14T10:41:35.304Z,24.51
2023-04-14T10:42:35.213Z,24.47
2023-04-14T10:43:35.236Z,24.43
2023-04-14T10:44:35.301Z,24.34
2023-04-14T10:45:35.217Z,24.30
2023-04-14T10:46:35.348Z,24.31
2023-04-14T10:47:35.261Z,24.33
2023-04-14T10:48:35.221Z,24.34
2023-04-14T10:49:35.239Z,24.37
2023-04-14T10:50:35.286Z,24.41
2023-04-14T10:51:35.316Z,24.44
2023-04-14T10:52:35.360Z,24.47
2023-04-14T10:53:35.438Z,24.50
2023-04-14T10:54:35.523Z,24.53
2023-04-14T10:55:40.137Z,24.54
2023-04-14T10:56:36.568Z,24.57
2023-04-14T10:57:37.052Z,24.60
2023-04-14T10:58:35.560Z,24.61
2023-04-14T10:59:35.517Z,24.63
2023-04-14T11:00:35.603Z,24.64
2023-04-14T11:01:36.047Z,24.66
2023-04-14T11:02:35.805Z,24.67
2023-04-14T11:03:35.792Z,24.68
2023-04-14T11:04:35.578Z,24.69
2023-04-14T11:05:35.529Z,24.71
2023-04-14T11:06:35.492Z,24.71
2023-04-14T11:07:35.513Z,24.71
2023-04-14T11:08:35.507Z,24.71
2023-04-14T11:09:35.479Z,24.73
2023-04-14T11:10:35.477Z,24.74
2023-04-14T11:11:35.448Z,24.75
2023-04-14T11:12:35.433Z,24.75
2023-04-14T11:13:35.421Z,24.76
2023-04-14T11:14:35.451Z,24.77
2023-04-14T11:15:35.431Z,24.78
2023-04-14T11:16:35.765Z,24.78
2023-04-14T11:17:35.568Z,24.78
2023-04-14T11:18:35.404Z,24.78
2023-04-14T11:19:35.382Z,24.78
2023-04-14T11:20:35.355Z,24.80
2023-04-14T11:21:35.360Z,24.80
2023-04-14T11:22:35.375Z,24.81
2023-04-14T11:23:35.388Z,24.82
2023-04-14T11:24:35.374Z,24.81
2023-04-14T11:25:35.372Z,24.81
2023-04-14T11:26:35.375Z,24.81
2023-04-14T11:27:35.852Z,24.81
2023-04-14T11:28:35.358Z,24.81
2023-04-14T11:29:35.323Z,24.82
2023-04-14T11:30:35.356Z,24.83
2023-04-14T11:31:35.413Z,24.83
2023-04-14T11:32:35.836Z,24.83
2023-04-14T11:33:35.518Z,24.83
2023-04-14T11:34:35.594Z,24.84
2023-04-14T11:35:35.667Z,24.84
2023-04-14T11:36:35.712Z,24.84
2023-04-14T11:37:35.781Z,24.83
2023-04-14T11:38:35.816Z,24.83
2023-04-14T11:39:35.868Z,24.84
2023-04-14T11:40:35.951Z,24.84
2023-04-14T11:41:35.996Z,24.84
2023-04-14T11:42:36.035Z,24.84
2023-04-14T11:43:36.102Z,24.83
2023-04-14T11:44:36.165Z,24.82
2023-04-14T11:45:36.219Z,24.81
2023-04-14T11:46:36.388Z,24.81
2023-04-14T11:47:36.350Z,24.80
2023-04-14T11:48:36.384Z,24.81
2023-04-14T11:49:36.459Z,24.82
2023-04-14T11:50:36.481Z,24.82
2023-04-14T11:51:36.530Z,24.81
2023-04-14T11:52:36.616Z,24.81
2023-04-14T11:53:36.653Z,24.80
2023-04-14T11:54:36.810Z,24.80
2023-04-14T11:55:36.784Z,24.79
2023-04-14T11:56:36.827Z,24.80
2023-04-14T11:57:36.870Z,24.80
2023-04-14T11:58:36.944Z,24.81
2023-04-14T11:59:37.003Z,24.80
2023-04-14T12:00:37.056Z,24.81
2023-04-14T12:01:37.118Z,24.80
2023-04-14T12:02:37.283Z,24.80
2023-04-14T12:03:37.331Z,24.80
2023-04-14T12:04:37.468Z,24.81
2023-04-14T12:05:37.399Z,24.81
2023-04-14T12:06:37.375Z,24.81
2023-04-14T12:07:37.457Z,24.81
2023-04-14T12:08:37.490Z,24.80
2023-04-14T12:09:37.571Z,24.79
2023-04-14T12:10:37.800Z,24.79
2023-04-14T12:11:37.990Z,24.80
2023-04-14T12:12:37.874Z,24.81
2023-04-14T12:13:37.722Z,24.81
2023-04-14T12:14:37.752Z,24.81
2023-04-14T12:15:37.821Z,24.81
2023-04-14T12:16:37.907Z,24.80
2023-04-14T12:17:37.967Z,24.74
2023-04-14T12:18:37.913Z,24.61
2023-04-14T12:19:37.929Z,24.46
2023-04-14T12:20:37.923Z,24.32
2023-04-14T12:21:37.975Z,24.20
2023-04-14T12:22:37.965Z,24.12
2023-04-14T12:23:38.040Z,24.03
2023-04-14T12:24:38.118Z,23.90
2023-04-14T12:25:38.161Z,23.79
2023-04-14T12:26:38.130Z,23.69
2023-04-14T12:27:38.145Z,23.71
2023-04-14T12:28:38.186Z,23.76
2023-04-14T12:29:38.249Z,23.81
2023-04-14T12:30:38.294Z,23.85
2023-04-14T12:31:38.347Z,23.90
2023-04-14T12:32:38.447Z,23.96
2023-04-14T12:33:38.415Z,24.00
2023-04-14T12:34:38.459Z,24.05
2023-04-14T12:35:38.482Z,24.09
2023-04-14T12:36:49.587Z,24.14
2023-04-14T12:37:39.499Z,24.18
2023-04-14T12:38:38.476Z,24.23
2023-04-14T12:39:38.494Z,24.28
2023-04-14T12:40:38.485Z,24.30
2023-04-14T12:41:38.445Z,24.33
2023-04-14T12:42:38.450Z,24.36
2023-04-14T12:43:38.417Z,24.38
2023-04-14T12:44:38.416Z,24.39
2023-04-14T12:45:38.443Z,24.41
2023-04-14T12:46:38.448Z,24.43
2023-04-14T12:47:38.507Z,24.44
2023-04-14T12:48:38.418Z,24.47
2023-04-14T12:49:38.409Z,24.47
2023-04-14T12:50:38.395Z,24.49
2023-04-14T12:51:38.409Z,24.49
2023-04-14T12:52:38.366Z,24.50
2023-04-14T12:53:38.382Z,24.52
2023-04-14T12:54:38.354Z,24.51